Time;durP1;ratioP1;P1;durP2;ratioP2;P2;SDS_P1;SDS_P2;PMS_P1;PMS_P2;Temp;Humidity;BMP_temperature;BMP_pressure;BME280_temperature;BME280_humidity;BME280_pressure;Samples;Min_cycle;Max_cycle;Signal;HPM_P1;HPM_P2
2022/09/08 00:00:56;;;;;;;8.38;2.25;;;;;;;31.29;37.35;100916.03;5061292;28;20048;-71
2022/09/08 00:03:25;;;;;;;9.15;2.75;;;;;;;31.39;37.13;100921.38;5047062;28;20381;-71
2022/09/08 00:06:12;;;;;;;7.75;2.08;;;;;;;31.37;36.93;100918.00;5052771;28;20028;-71
2022/09/08 00:08:38;;;;;;;14.10;3.97;;;;;;;31.76;36.32;100913.22;5032777;28;20033;-71
2022/09/08 00:11:06;;;;;;;8.52;2.40;;;;;;;31.57;36.39;100914.19;5036018;28;20036;-71
2022/09/08 00:13:35;;;;;;;15.35;3.47;;;;;;;31.44;36.76;100921.78;5031929;28;20017;-72
2022/09/08 00:16:02;;;;;;;10.45;3.00;;;;;;;31.49;37.13;100921.34;5032890;28;20385;-71
2022/09/08 00:18:28;;;;;;;8.10;2.88;;;;;;;31.47;37.22;100913.38;5051794;28;20036;-71
2022/09/08 00:20:53;;;;;;;10.35;4.63;;;;;;;31.50;36.99;100907.69;5050758;28;20047;-71
2022/09/08 00:23:19;;;;;;;8.10;2.83;;;;;;;31.50;37.00;100902.28;5033607;28;20485;-71
2022/09/08 00:25:45;;;;;;;7.88;3.72;;;;;;;31.12;37.67;100904.19;5053141;28;20029;-71
2022/09/08 00:28:12;;;;;;;11.57;3.75;;;;;;;31.13;37.81;100900.47;5054378;28;20108;-71
2022/09/08 00:30:37;;;;;;;13.15;3.90;;;;;;;31.42;37.02;100904.88;5035157;28;20472;-72
2022/09/08 00:33:03;;;;;;;12.38;3.85;;;;;;;31.66;36.69;100900.81;5035928;28;20033;-71
2022/09/08 00:35:28;;;;;;;13.43;4.40;;;;;;;31.00;37.82;100899.94;5065432;28;20090;-71
2022/09/08 00:37:54;;;;;;;14.77;5.50;;;;;;;31.25;37.63;100896.56;5073720;28;20473;-71
2022/09/08 00:40:22;;;;;;;8.05;4.75;;;;;;;30.37;39.56;100890.53;5071614;28;20387;-72
2022/09/08 00:42:56;;;;;;;16.00;4.75;;;;;;;30.82;38.74;100892.59;5074344;28;20020;-72
2022/09/08 00:45:24;;;;;;;9.65;5.00;;;;;;;30.60;39.21;100894.63;5059356;28;20031;-71
2022/09/08 00:48:03;;;;;;;17.08;4.78;;;;;;;30.63;39.25;100874.63;5072138;28;20040;-73
2022/09/08 00:50:29;;;;;;;13.73;6.82;;;;;;;31.02;38.09;100879.03;5072966;28;20032;-71
2022/09/08 00:53:03;;;;;;;14.07;6.15;;;;;;;30.81;38.37;100876.56;5075560;28;20142;-71
2022/09/08 00:55:31;;;;;;;18.35;5.80;;;;;;;30.84;38.38;100871.72;5084078;28;20048;-71
2022/09/08 00:57:57;;;;;;;12.00;5.88;;;;;;;30.89;38.41;100866.72;5067701;28;20115;-71
2022/09/08 01:00:22;;;;;;;13.15;5.47;;;;;;;30.51;38.86;100863.13;5059054;28;20119;-71
2022/09/08 01:02:48;;;;;;;11.88;5.55;;;;;;;30.60;38.80;100867.66;5073771;28;20027;-71
2022/09/08 01:05:18;;;;;;;13.75;5.78;;;;;;;31.12;38.03;100861.00;5074389;28;20069;-71
2022/09/08 01:13:37;;;;;;;14.95;5.88;;;;;;;30.54;39.40;100873.66;5091701;28;20047;-72
2022/09/08 01:16:05;;;;;;;15.05;6.35;;;;;;;30.71;38.74;100874.75;5093898;28;20027;-72
2022/09/08 01:18:32;;;;;;;11.27;6.15;;;;;;;29.99;40.30;100870.66;5068289;28;20024;-71
2022/09/08 01:21:06;;;;;;;15.55;5.97;;;;;;;30.24;39.92;100869.22;5072349;28;20089;-71
2022/09/08 01:23:46;;;;;;;14.88;5.93;;;;;;;28.52;43.54;100884.38;5055528;28;20020;-72
2022/09/08 01:26:36;;;;;;;12.88;6.00;;;;;;;29.11;43.03;100879.31;5055311;28;20507;-71
2022/09/08 01:29:05;;;;;;;8.93;5.07;;;;;;;30.16;40.55;100859.19;5068679;28;20059;-71
2022/09/08 01:31:33;;;;;;;18.88;6.60;;;;;;;29.95;41.10;100865.56;5055253;28;20035;-72
2022/09/08 01:34:00;;;;;;;16.35;6.78;;;;;;;30.00;40.66;100864.28;5055339;28;20032;-72
2022/09/08 01:36:25;;;;;;;15.55;7.63;;;;;;;30.12;40.15;100864.00;5054609;28;20024;-72
2022/09/08 01:38:50;;;;;;;15.43;6.97;;;;;;;28.82;42.94;100861.22;5066061;28;20024;-71
2022/09/08 01:41:16;;;;;;;13.10;6.70;;;;;;;29.91;41.27;100861.47;5071754;28;20032;-71
2022/09/08 01:43:41;;;;;;;13.55;6.25;;;;;;;30.73;39.24;100863.78;5054847;28;20028;-71
2022/09/08 01:46:07;;;;;;;17.63;7.35;;;;;;;30.39;39.62;100867.81;5072282;28;20420;-71
2022/09/08 01:48:33;;;;;;;11.02;7.00;;;;;;;30.11;40.01;100866.84;5039251;28;20071;-71
2022/09/08 01:51:00;;;;;;;15.10;7.95;;;;;;;30.52;39.15;100864.84;5057441;28;20076;-71
2022/09/08 01:53:27;;;;;;;15.75;7.35;;;;;;;30.83;38.72;100864.63;5053804;28;20074;-72
2022/09/08 01:55:52;;;;;;;17.55;7.80;;;;;;;30.88;38.18;100865.03;5072125;28;20031;-72
2022/09/08 01:58:17;;;;;;;17.67;7.18;;;;;;;30.59;38.25;100865.94;5050501;28;20559;-71
2022/09/08 02:00:43;;;;;;;21.50;7.07;;;;;;;30.90;38.12;100863.03;5041888;28;20033;-72
2022/09/08 02:03:11;;;;;;;11.85;7.45;;;;;;;30.65;38.73;100863.69;5065703;28;20029;-72
2022/09/08 02:05:40;;;;;;;11.90;6.85;;;;;;;30.38;39.05;100851.81;5066388;28;20032;-71
2022/09/08 02:08:06;;;;;;;11.23;6.45;;;;;;;30.12;39.52;100847.84;5069542;28;20029;-71
2022/09/08 02:10:31;;;;;;;12.98;6.45;;;;;;;30.25;38.75;100844.88;5071515;28;20081;-72
2022/09/08 02:12:57;;;;;;;16.67;5.40;;;;;;;30.05;39.04;100845.88;5038904;28;20029;-71
2022/09/08 02:15:22;;;;;;;12.07;5.30;;;;;;;30.14;38.97;100845.00;5054326;28;20081;-71
2022/09/08 02:17:48;;;;;;;7.53;4.82;;;;;;;29.95;38.91;100841.31;5072047;28;20033;-72
2022/09/08 02:20:15;;;;;;;13.63;5.07;;;;;;;29.88;38.96;100840.19;5050645;28;20039;-71
2022/09/08 02:22:41;;;;;;;15.85;4.85;;;;;;;30.42;37.73;100837.03;5054722;28;20113;-71
2022/09/08 02:25:08;;;;;;;12.23;4.15;;;;;;;30.71;37.22;100836.13;5052347;28;20036;-71
2022/09/08 02:27:33;;;;;;;13.10;3.60;;;;;;;30.61;36.82;100837.00;5038061;28;20464;-72
2022/09/08 02:29:58;;;;;;;9.93;3.53;;;;;;;30.12;37.72;100836.22;5071235;28;20040;-71
2022/09/08 02:32:24;;;;;;;10.57;3.70;;;;;;;30.42;37.70;100831.63;5070261;28;20024;-72
2022/09/08 02:34:49;;;;;;;9.25;2.78;;;;;;;30.32;38.00;100828.94;5057597;28;20029;-71
2022/09/08 02:37:15;;;;;;;8.85;2.72;;;;;;;29.77;39.30;100826.81;5052165;28;20033;-72
2022/09/08 02:39:40;;;;;;;6.07;2.22;;;;;;;27.83;43.39;100839.94;5053285;28;20027;-73
2022/09/08 02:42:06;;;;;;;11.35;2.58;;;;;;;28.33;42.73;100830.47;5052030;28;20032;-73
2022/09/08 02:44:32;;;;;;;6.68;2.40;;;;;;;27.13;45.67;100836.66;5033567;28;20570;-73
2022/09/08 02:46:57;;;;;;;7.40;2.30;;;;;;;27.53;45.25;100830.78;5061000;28;20052;-73
2022/09/08 02:49:23;;;;;;;9.18;2.40;;;;;;;27.98;44.30;100832.44;5071351;28;20031;-72
2022/09/08 02:51:48;;;;;;;8.98;2.45;;;;;;;26.65;46.20;100831.50;5091312;28;20038;-71
2022/09/08 02:54:14;;;;;;;5.18;2.00;;;;;;;27.48;44.40;100824.06;5072662;28;20028;-72
2022/09/08 02:56:39;;;;;;;8.10;2.00;;;;;;;27.26;46.06;100821.28;5061718;28;20028;-71
2022/09/08 02:59:04;;;;;;;4.70;1.83;;;;;;;27.94;44.06;100814.88;5090078;28;20032;-71
2022/09/08 03:01:30;;;;;;;5.38;1.88;;;;;;;28.45;43.54;100824.03;5070850;28;20020;-71
2022/09/08 03:03:55;;;;;;;8.40;2.33;;;;;;;28.65;43.54;100808.06;5068036;28;20481;-72
2022/09/08 03:06:21;;;;;;;9.98;3.28;;;;;;;28.67;43.68;100800.72;5059732;28;20057;-71
2022/09/08 03:08:46;;;;;;;7.93;2.17;;;;;;;28.13;43.50;100802.63;5090638;28;20034;-71
2022/09/08 03:11:12;;;;;;;9.27;2.05;;;;;;;27.84;44.46;100805.91;5089422;28;20027;-71
2022/09/08 03:13:39;;;;;;;5.40;1.83;;;;;;;28.57;43.13;100801.47;5069631;28;20439;-71
2022/09/08 03:16:05;;;;;;;9.70;2.95;;;;;;;28.50;43.12;100805.69;5077229;28;20028;-71
2022/09/08 03:18:31;;;;;;;9.10;2.17;;;;;;;29.13;41.85;100810.09;5070902;28;20035;-71
2022/09/08 03:21:09;;;;;;;9.25;2.38;;;;;;;28.93;42.52;100812.72;5086005;28;20405;-72
2022/09/08 03:23:35;;;;;;;5.03;2.00;;;;;;;29.07;42.92;100814.19;5071357;28;20032;-71
2022/09/08 03:26:06;;;;;;;7.78;2.00;;;;;;;29.32;42.71;100805.78;5053506;28;20021;-71
2022/09/08 03:28:32;;;;;;;10.93;3.15;;;;;;;29.01;42.85;100803.13;5052866;28;20029;-71
2022/09/08 03:30:58;;;;;;;4.65;2.08;;;;;;;29.11;42.39;100810.25;5064490;28;20024;-72
2022/09/08 03:33:23;;;;;;;10.98;2.22;;;;;;;29.20;42.31;100803.19;5071055;28;20036;-72
2022/09/08 03:35:49;;;;;;;12.75;2.63;;;;;;;29.14;42.16;100811.81;5069863;28;20028;-72
2022/09/08 03:38:17;;;;;;;5.57;1.98;;;;;;;28.91;42.50;100814.69;5052745;28;20055;-71
2022/09/08 03:40:43;;;;;;;4.88;2.42;;;;;;;29.07;42.10;100816.00;5069624;28;20660;-71
2022/09/08 03:43:09;;;;;;;7.97;2.42;;;;;;;29.18;42.07;100821.31;5070822;28;20058;-71
2022/09/08 03:45:35;;;;;;;6.40;2.15;;;;;;;29.04;42.58;100819.00;5077795;28;20024;-72
2022/09/08 03:48:01;;;;;;;6.07;2.10;;;;;;;29.09;42.65;100827.50;5055220;28;20160;-71
2022/09/08 03:50:26;;;;;;;8.70;2.38;;;;;;;29.37;41.26;100825.06;5031774;28;20029;-71
2022/09/08 03:52:52;;;;;;;7.85;2.13;;;;;;;28.17;44.39;100820.19;5033152;28;20456;-71
2022/09/08 03:55:18;;;;;;;6.82;2.17;;;;;;;28.75;42.64;100820.56;5065895;28;20520;-71
2022/09/08 03:57:44;;;;;;;5.57;2.40;;;;;;;28.53;42.95;100821.53;5068487;28;20039;-71
2022/09/08 04:00:12;;;;;;;5.35;2.28;;;;;;;28.63;42.65;100831.50;5071509;28;20020;-72
2022/09/08 04:02:38;;;;;;;7.93;2.60;;;;;;;28.77;42.90;100829.34;5074021;28;20032;-71
2022/09/08 04:05:04;;;;;;;10.75;2.38;;;;;;;27.90;44.53;100842.97;5075180;28;20076;-71
2022/09/08 04:07:31;;;;;;;7.22;2.47;;;;;;;28.20;43.66;100826.13;5061355;28;20116;-71
2022/09/08 04:09:57;;;;;;;7.07;3.03;;;;;;;27.38;45.94;100823.97;5068802;28;20501;-71
2022/09/08 04:12:25;;;;;;;7.50;2.45;;;;;;;27.55;45.48;100815.41;5074603;28;20043;-71
2022/09/08 04:14:51;;;;;;;7.35;2.65;;;;;;;27.83;45.12;100807.72;5055218;28;20111;-72
2022/09/08 04:17:19;;;;;;;8.18;2.67;;;;;;;26.00;49.64;100809.63;5050286;28;20115;-71
2022/09/08 04:19:46;;;;;;;7.10;2.78;;;;;;;27.31;47.22;100801.28;5043095;28;20029;-72
2022/09/08 04:22:12;;;;;;;7.82;2.55;;;;;;;27.80;45.88;100786.50;5036595;28;20040;-71
2022/09/08 04:24:38;;;;;;;6.40;2.72;;;;;;;28.18;44.91;100790.50;5062692;28;20025;-71
2022/09/08 04:27:03;;;;;;;13.43;3.38;;;;;;;28.53;44.02;100788.44;5050086;28;20025;-71
2022/09/08 04:29:29;;;;;;;8.73;3.05;;;;;;;28.08;45.31;100794.94;5059748;28;20073;-71
2022/09/08 04:31:54;;;;;;;10.18;3.40;;;;;;;28.58;44.85;100784.38;5053692;28;20028;-71
2022/09/08 04:34:19;;;;;;;10.50;3.53;;;;;;;27.68;46.09;100792.91;5054344;28;20143;-71
2022/09/08 04:36:45;;;;;;;6.72;3.30;;;;;;;28.09;45.24;100802.03;5056131;28;20476;-71
2022/09/08 04:39:11;;;;;;;10.25;3.22;;;;;;;28.44;44.54;100795.47;5034621;28;20068;-72
2022/09/08 04:41:38;;;;;;;8.95;3.78;;;;;;;28.21;44.89;100810.88;5054306;28;20029;-71
2022/09/08 04:44:04;;;;;;;17.58;4.63;;;;;;;27.72;46.17;100813.97;5053283;28;20032;-71
2022/09/08 04:46:31;;;;;;;14.40;4.22;;;;;;;27.21;47.38;100811.91;5053555;28;20041;-71
2022/09/08 04:48:57;;;;;;;11.25;4.65;;;;;;;27.71;46.03;100808.75;5070885;28;20035;-71
2022/09/08 04:51:23;;;;;;;12.63;3.80;;;;;;;28.66;43.89;100809.75;5073204;28;20025;-71
2022/09/08 04:53:52;;;;;;;10.38;4.38;;;;;;;28.69;44.25;100817.56;5068532;28;20017;-71
2022/09/08 04:56:18;;;;;;;10.38;5.05;;;;;;;28.80;44.14;100804.03;5073684;28;20033;-71
2022/09/08 04:58:45;;;;;;;12.65;4.18;;;;;;;28.99;43.33;100805.09;5045351;28;20048;-71
2022/09/08 05:01:19;;;;;;;10.90;4.38;;;;;;;27.76;46.58;100814.59;5053627;28;20028;-71
2022/09/08 05:03:46;;;;;;;11.57;3.72;;;;;;;27.86;46.20;100804.81;5050578;28;20028;-72
2022/09/08 05:06:14;;;;;;;14.15;5.00;;;;;;;27.97;45.44;100813.78;5072949;28;20020;-71
2022/09/08 05:08:48;;;;;;;10.40;4.43;;;;;;;27.00;48.71;100809.13;5063297;28;20055;-71
2022/09/08 05:11:15;;;;;;;11.25;5.00;;;;;;;27.39;47.97;100799.69;5069733;28;20559;-71
2022/09/08 05:13:41;;;;;;;8.80;5.57;;;;;;;26.84;49.12;100804.13;5052631;28;20017;-71
2022/09/08 05:16:16;;;;;;;9.30;5.20;;;;;;;26.52;48.65;100807.47;5053651;28;20051;-72
2022/09/08 05:18:41;;;;;;;8.32;4.65;;;;;;;27.24;47.21;100807.16;5046795;28;20017;-71
2022/09/08 05:21:08;;;;;;;17.95;5.60;;;;;;;27.52;46.98;100796.88;5073170;28;20384;-71
2022/09/08 05:23:35;;;;;;;12.60;5.43;;;;;;;26.57;48.91;100813.31;5061266;28;20080;-71
2022/09/08 05:26:06;;;;;;;19.08;6.18;;;;;;;25.79;53.25;100804.03;5035698;28;20021;-71
2022/09/08 05:28:35;;;;;;;10.30;5.05;;;;;;;27.40;47.47;100795.19;5049433;28;20024;-71
2022/09/08 05:31:01;;;;;;;20.63;6.53;;;;;;;26.61;49.20;100808.56;5052864;28;20025;-72
2022/09/08 05:33:27;;;;;;;8.45;5.28;;;;;;;27.54;47.28;100800.25;5052181;28;20347;-72
2022/09/08 05:35:53;;;;;;;11.02;5.40;;;;;;;27.20;47.57;100800.31;5053447;28;20049;-71
2022/09/08 05:38:20;;;;;;;11.88;6.00;;;;;;;26.59;50.10;100804.19;5047839;28;20392;-71
2022/09/08 05:40:45;;;;;;;9.57;6.75;;;;;;;25.26;55.10;100804.34;5053193;28;20477;-72
2022/09/08 05:43:11;;;;;;;14.50;6.38;;;;;;;26.74;50.45;100809.38;5051476;28;20021;-72
2022/09/08 05:45:37;;;;;;;9.85;6.32;;;;;;;26.42;51.90;100800.16;5055132;28;20478;-72
2022/09/08 05:48:03;;;;;;;11.52;7.07;;;;;;;26.18;52.00;100802.88;5072652;28;20416;-72
2022/09/08 05:50:34;;;;;;;13.07;7.55;;;;;;;26.87;50.20;100804.75;5062625;28;20396;-72
2022/09/08 05:53:00;;;;;;;8.88;5.88;;;;;;;26.18;51.52;100797.53;5042031;28;20028;-73
2022/09/08 05:55:25;;;;;;;12.93;5.82;;;;;;;27.08;47.99;100801.31;5071933;28;20028;-72
2022/09/08 05:57:51;;;;;;;9.05;4.07;;;;;;;27.64;46.71;100796.81;5066966;28;20112;-72
2022/09/08 06:00:16;;;;;;;6.28;4.18;;;;;;;27.34;46.48;100796.53;5033682;28;20021;-71
2022/09/08 06:02:42;;;;;;;7.72;3.90;;;;;;;26.43;48.71;100806.34;5063436;28;20040;-71
2022/09/08 06:05:07;;;;;;;5.78;3.65;;;;;;;27.71;46.06;100806.06;5054807;28;20021;-71
2022/09/08 06:07:33;;;;;;;8.55;4.93;;;;;;;26.98;47.78;100808.38;5053222;28;20159;-72
2022/09/08 06:09:58;;;;;;;8.93;5.43;;;;;;;26.80;48.63;100814.22;5049856;28;20064;-71
2022/09/08 06:12:24;;;;;;;11.18;5.55;;;;;;;26.88;48.52;100811.78;5057469;28;20029;-71
2022/09/08 06:14:49;;;;;;;6.45;4.40;;;;;;;26.98;47.32;100805.69;5054656;28;20031;-71
2022/09/08 06:17:14;;;;;;;11.55;4.93;;;;;;;26.71;48.70;100804.25;5071537;28;20111;-71
2022/09/08 06:19:40;;;;;;;7.00;5.00;;;;;;;26.03;50.71;100801.38;5054393;28;20111;-71
2022/09/08 06:22:05;;;;;;;13.98;6.43;;;;;;;26.08;50.44;100793.88;5043660;28;20111;-71
2022/09/08 06:24:30;;;;;;;6.40;5.40;;;;;;;27.53;46.87;100800.38;5070539;28;20473;-71
2022/09/08 06:27:17;;;;;;;11.95;7.60;;;;;;;26.45;49.86;100804.44;5054396;28;20028;-71
2022/09/08 06:30:07;;;;;;;9.13;6.63;;;;;;;27.61;46.60;100797.09;5053737;28;20036;-72
2022/09/08 06:33:03;;;;;;;11.35;6.05;;;;;;;26.70;49.53;100814.09;5070585;28;20028;-71
2022/09/08 06:35:53;;;;;;;7.43;5.35;;;;;;;26.92;49.10;100810.56;5037262;28;20560;-71
2022/09/08 06:38:39;;;;;;;12.98;5.20;;;;;;;26.89;49.00;100808.13;5067657;28;20043;-72
2022/09/08 06:41:14;;;;;;;5.72;4.60;;;;;;;27.03;47.86;100819.59;5054328;28;20436;-71
2022/09/08 06:43:48;;;;;;;7.53;4.53;;;;;;;27.16;47.92;100820.31;5058170;28;20025;-71
2022/09/08 06:46:26;;;;;;;6.00;4.18;;;;;;;26.97;48.31;100820.06;5053322;28;20032;-71
2022/09/08 06:48:53;;;;;;;5.85;4.47;;;;;;;27.28;47.83;100818.47;5042794;28;20036;-71
2022/09/08 06:51:21;;;;;;;7.85;5.07;;;;;;;26.54;49.48;100819.78;5066279;28;20107;-71
2022/09/08 06:54:12;;;;;;;6.88;4.93;;;;;;;26.18;50.06;100818.97;5035863;28;20424;-71
2022/09/08 06:56:49;;;;;;;9.00;4.95;;;;;;;26.75;48.82;100816.44;5051799;28;20115;-72
2022/09/08 06:59:35;;;;;;;13.02;4.72;;;;;;;27.10;48.73;100810.06;5057941;28;20036;-71
2022/09/08 07:02:07;;;;;;;9.98;4.57;;;;;;;27.32;47.65;100803.81;5002839;28;20078;-72
2022/09/08 07:04:54;;;;;;;6.50;3.75;;;;;;;26.48;50.29;100812.22;5047570;28;20043;-71
2022/09/08 07:07:26;;;;;;;9.30;4.50;;;;;;;27.58;47.70;100809.75;5039054;28;20044;-72
2022/09/08 07:10:03;;;;;;;8.85;5.10;;;;;;;26.57;49.46;100816.88;5051517;28;20021;-72
2022/09/08 07:13:16;;;;;;;12.52;4.45;;;;;;;27.39;47.27;100812.25;5040630;28;20059;-72
2022/09/08 07:15:54;;;;;;;10.18;4.85;;;;;;;26.48;50.21;100804.19;4989439;28;20048;-71
2022/09/08 07:18:24;;;;;;;8.80;4.55;;;;;;;26.82;49.38;100806.94;5036238;28;20029;-71
2022/09/08 07:20:58;;;;;;;10.23;5.15;;;;;;;26.31;50.27;100796.59;5043820;28;20029;-72
2022/09/08 07:23:32;;;;;;;8.38;5.57;;;;;;;26.12;52.23;100798.00;5056761;28;20036;-72
2022/09/08 07:26:15;;;;;;;10.32;6.10;;;;;;;26.16;52.63;100798.63;5032300;28;20036;-71
2022/09/08 07:28:45;;;;;;;11.43;5.68;;;;;;;27.09;50.08;100794.94;5037511;28;20495;-71
2022/09/08 07:31:29;;;;;;;11.02;6.63;;;;;;;25.49;55.88;100803.53;5052484;28;20515;-71
2022/09/08 07:34:02;;;;;;;13.60;6.93;;;;;;;25.49;55.74;100806.22;5033284;28;20032;-70
2022/09/08 07:36:53;;;;;;;16.42;9.35;;;;;;;26.66;52.22;100806.41;5042664;28;20052;-71
2022/09/08 07:39:35;;;;;;;16.85;10.98;;;;;;;26.20;52.93;100805.44;5054603;28;20693;-71
2022/09/08 07:42:03;;;;;;;23.20;13.20;;;;;;;24.66;57.47;100806.78;5043725;28;20032;-72
2022/09/08 07:44:29;;;;;;;25.77;14.88;;;;;;;25.64;53.31;100804.22;5038661;28;20037;-71
2022/09/08 07:47:51;;;;;;;19.40;13.23;;;;;;;26.23;52.65;100810.59;5062953;28;20055;-72
2022/09/08 07:50:55;;;;;;;20.48;14.13;;;;;;;26.94;50.94;100809.59;5029700;28;20044;-71
2022/09/08 07:53:40;;;;;;;19.52;11.20;;;;;;;27.58;48.25;100809.75;5039589;28;20024;-71
2022/09/08 07:56:17;;;;;;;14.07;7.85;;;;;;;26.57;49.91;100803.47;5061200;28;20032;-71
2022/09/08 07:58:42;;;;;;;12.05;7.07;;;;;;;26.16;51.24;100806.66;5061447;28;20443;-72
2022/09/08 08:01:27;;;;;;;12.18;6.55;;;;;;;26.38;50.50;100813.91;5044987;28;20040;-71
2022/09/08 08:04:01;;;;;;;10.48;6.32;;;;;;;26.17;49.02;100817.28;5057585;28;20037;-72
2022/09/08 08:06:32;;;;;;;9.75;5.88;;;;;;;25.80;51.05;100820.03;5054882;28;20107;-72
2022/09/08 08:09:28;;;;;;;9.70;7.65;;;;;;;27.28;48.31;100829.19;5048314;28;20040;-71
2022/09/08 08:12:09;;;;;;;10.98;8.10;;;;;;;26.13;51.02;100823.84;5040802;28;20045;-71
2022/09/08 08:14:43;;;;;;;12.48;8.38;;;;;;;26.12;51.71;100824.78;5049684;28;20531;-71
2022/09/08 08:17:33;;;;;;;16.63;9.48;;;;;;;26.47;49.24;100828.41;5039060;28;20052;-71
2022/09/08 08:20:17;;;;;;;11.77;8.60;;;;;;;28.74;44.89;100826.06;5056802;28;20032;-71
2022/09/08 08:22:59;;;;;;;8.93;7.65;;;;;;;28.86;43.45;100822.31;5069149;28;20036;-72
2022/09/08 08:25:28;;;;;;;10.90;7.90;;;;;;;26.38;48.19;100832.66;5054730;28;20135;-71
2022/09/08 08:28:13;;;;;;;10.60;7.22;;;;;;;26.53;48.43;100826.13;5065642;28;20036;-72
2022/09/08 08:30:45;;;;;;;9.40;7.25;;;;;;;28.35;44.08;100834.72;5051036;28;20075;-71
2022/09/08 08:33:19;;;;;;;11.23;7.93;;;;;;;28.56;43.84;100842.81;5049304;28;20074;-71
2022/09/08 08:36:03;;;;;;;13.23;8.73;;;;;;;28.17;43.84;100837.16;5057245;28;20032;-71
2022/09/08 08:38:32;;;;;;;11.20;7.97;;;;;;;28.52;44.00;100841.38;5031734;28;20605;-71
2022/09/08 08:40:59;;;;;;;9.82;7.82;;;;;;;28.07;45.13;100838.94;5049812;28;20029;-71
2022/09/08 08:43:24;;;;;;;11.88;8.23;;;;;;;26.76;46.94;100847.59;5048934;28;20472;-71
2022/09/08 08:46:20;;;;;;;10.20;8.20;;;;;;;27.14;46.76;100843.72;5061445;28;20025;-71
2022/09/08 08:48:50;;;;;;;12.40;7.85;;;;;;;26.82;47.57;100839.09;5054712;28;20127;-71
2022/09/08 08:51:34;;;;;;;10.95;7.60;;;;;;;27.52;46.19;100841.63;5054226;28;20044;-72
2022/09/08 08:54:18;;;;;;;10.40;7.57;;;;;;;26.52;47.66;100837.81;5061704;28;20077;-71
2022/09/08 08:57:06;;;;;;;11.18;7.93;;;;;;;27.11;46.15;100843.97;5054017;28;20033;-71
2022/09/08 09:00:09;;;;;;;10.68;7.18;;;;;;;27.20;45.96;100845.94;5056547;28;20473;-71
2022/09/08 09:02:56;;;;;;;10.50;7.72;;;;;;;28.32;44.50;100850.28;5050277;28;20016;-72
2022/09/08 09:05:40;;;;;;;8.45;6.43;;;;;;;27.25;45.30;100832.97;5048654;28;20028;-72
2022/09/08 09:08:17;;;;;;;9.30;6.65;;;;;;;26.53;47.13;100842.19;5064365;28;20049;-72
2022/09/08 09:10:49;;;;;;;9.75;7.28;;;;;;;27.93;43.90;100838.22;5043354;28;20036;-72
2022/09/08 09:13:44;;;;;;;14.50;7.00;;;;;;;27.59;45.17;100840.16;5051001;28;20115;-72
2022/09/08 09:16:27;;;;;;;11.15;7.10;;;;;;;28.39;42.53;100846.09;5068118;28;20140;-71
2022/09/08 09:19:12;;;;;;;6.53;5.82;;;;;;;28.32;41.85;100839.53;5040825;28;20389;-72
2022/09/08 09:21:56;;;;;;;8.80;5.80;;;;;;;27.55;44.08;100831.50;5044540;28;20534;-71
2022/09/08 09:24:30;;;;;;;9.38;4.53;;;;;;;27.65;43.54;100826.22;5051200;28;20029;-71
2022/09/08 09:26:56;;;;;;;9.65;4.43;;;;;;;27.51;43.78;100824.69;5064164;28;20032;-72
2022/09/08 09:29:24;;;;;;;6.43;4.80;;;;;;;27.91;43.00;100826.72;5046383;28;20035;-72
2022/09/08 09:32:04;;;;;;;9.70;3.60;;;;;;;28.27;43.64;100832.72;5060633;28;20033;-71
2022/09/08 09:34:51;;;;;;;8.38;3.42;;;;;;;26.69;45.08;100838.31;5042359;28;20053;-72
2022/09/08 09:37:59;;;;;;;5.07;2.88;;;;;;;26.26;46.01;100836.28;5052231;28;20037;-72
2022/09/08 09:40:59;;;;;;;8.30;2.83;;;;;;;27.37;43.92;100841.06;5035383;28;20031;-72
2022/09/08 09:43:34;;;;;;;8.10;2.97;;;;;;;28.35;41.64;100844.66;5032517;28;20049;-70
2022/09/08 09:46:02;;;;;;;4.90;3.03;;;;;;;28.13;42.57;100841.09;5064135;28;20115;-71
2022/09/08 09:48:59;;;;;;;7.10;3.55;;;;;;;28.19;41.55;100839.72;5054517;28;20053;-72
2022/09/08 09:51:58;;;;;;;10.07;4.07;;;;;;;27.48;42.19;100841.03;5055037;28;20043;-72
2022/09/08 09:54:33;;;;;;;10.07;4.57;;;;;;;29.36;40.05;100844.88;5033507;28;20043;-71
2022/09/08 09:57:35;;;;;;;8.93;4.25;;;;;;;27.55;41.76;100839.56;5060322;28;20028;-72
2022/09/08 10:00:14;;;;;;;8.18;3.83;;;;;;;28.07;41.43;100842.47;5054884;28;20056;-71
2022/09/08 10:02:59;;;;;;;8.75;3.25;;;;;;;28.77;40.10;100840.13;5032482;28;20150;-72
2022/09/08 10:05:55;;;;;;;10.10;2.58;;;;;;;28.12;40.39;100843.91;5061833;28;20032;-72
2022/09/08 10:08:55;;;;;;;7.25;2.53;;;;;;;27.41;42.00;100845.22;5060170;28;20070;-71
2022/09/08 10:11:24;;;;;;;6.40;1.80;;;;;;;27.89;41.09;100839.44;5050003;28;20040;-72
2022/09/08 10:14:13;;;;;;;8.15;2.08;;;;;;;28.93;38.96;100838.75;5059581;28;20032;-72
2022/09/08 10:17:16;;;;;;;6.45;2.13;;;;;;;30.05;37.48;100837.78;5045102;28;20071;-72
2022/09/08 10:19:41;;;;;;;6.88;1.77;;;;;;;29.90;36.83;100837.34;5055919;28;20027;-72
2022/09/08 10:22:36;;;;;;;5.88;1.50;;;;;;;30.29;37.03;100835.50;5052213;28;20037;-71
2022/09/08 10:25:13;;;;;;;6.28;1.40;;;;;;;30.40;35.70;100847.09;5051625;28;20491;-72
2022/09/08 10:27:54;;;;;;;6.53;1.38;;;;;;;28.14;38.83;100850.84;5058482;28;20031;-72
2022/09/08 10:30:25;;;;;;;8.05;1.42;;;;;;;28.38;38.80;100849.75;5046057;28;20055;-71
2022/09/08 10:33:27;;;;;;;12.65;1.73;;;;;;;29.65;37.24;100844.09;5068706;28;20029;-72
2022/09/08 10:36:01;;;;;;;8.27;1.70;;;;;;;29.74;36.34;100848.66;5057218;28;20032;-72
2022/09/08 10:39:04;;;;;;;10.70;1.60;;;;;;;30.03;36.24;100837.06;5066216;28;20074;-71
2022/09/08 10:41:45;;;;;;;;;;;;;;;28.99;37.77;100842.75;5036670;28;20025;-72
2022/09/08 10:44:10;;;;;;;7.25;1.25;;;;;;;30.40;35.51;100844.41;5051027;28;19927;-72
2022/09/08 10:46:44;;;;;;;5.13;1.38;;;;;;;30.07;34.76;100830.41;5038901;28;20021;-73
2022/09/08 10:49:19;;;;;;;7.80;1.55;;;;;;;29.54;35.96;100839.69;5070468;28;20028;-72
2022/09/08 10:52:17;;;;;;;6.97;1.67;;;;;;;28.21;37.39;100843.13;5070310;28;20028;-72
2022/09/08 10:54:51;;;;;;;10.60;2.05;;;;;;;28.80;37.60;100844.38;5052411;28;20029;-72
2022/09/08 10:57:30;;;;;;;7.30;2.20;;;;;;;28.96;36.28;100843.03;5039726;28;20042;-71
2022/09/08 11:00:10;;;;;;;9.82;2.03;;;;;;;29.16;36.02;100844.81;5063824;28;20102;-71
2022/09/08 11:02:46;;;;;;;5.78;2.10;;;;;;;30.17;35.42;100842.03;5062568;28;20082;-73
2022/09/08 11:05:34;;;;;;;10.73;2.50;;;;;;;30.87;33.95;100841.75;5032887;28;20036;-72
2022/09/08 11:08:27;;;;;;;8.90;2.70;;;;;;;29.60;36.63;100831.91;5034852;28;20055;-72
2022/09/08 11:11:30;;;;;;;8.90;2.75;;;;;;;28.06;38.86;100839.91;5037039;28;20463;-72
2022/09/08 11:14:17;;;;;;;8.25;2.67;;;;;;;28.24;38.62;100834.81;5068556;28;20024;-73
2022/09/08 11:17:21;;;;;;;8.40;2.85;;;;;;;27.83;38.85;100833.72;5055268;28;20459;-72
2022/09/08 11:20:24;;;;;;;10.13;2.80;;;;;;;28.81;37.73;100829.94;5062602;28;20040;-72
2022/09/08 11:23:13;;;;;;;7.97;2.85;;;;;;;29.48;35.78;100824.94;5037194;28;20044;-72
2022/09/08 11:26:02;;;;;;;6.70;3.05;;;;;;;29.08;37.22;100841.94;5031994;28;20090;-72
2022/09/08 11:28:51;;;;;;;5.05;3.17;;;;;;;29.19;37.51;100838.28;5031651;28;20400;-72
2022/09/08 11:31:41;;;;;;;8.32;3.38;;;;;;;29.40;36.84;100830.16;5040930;28;20040;-71
2022/09/08 11:34:13;;;;;;;12.13;4.50;;;;;;;29.37;37.21;100836.66;5034943;28;20037;-72
2022/09/08 11:37:00;;;;;;;10.27;3.65;;;;;;;27.95;38.93;100831.88;5056238;28;20112;-72
2022/09/08 11:39:31;;;;;;;8.07;2.90;;;;;;;30.02;34.83;100835.34;5051800;28;20029;-71
2022/09/08 11:42:21;;;;;;;10.23;2.60;;;;;;;29.77;34.87;100837.59;5052916;28;20361;-71
2022/09/08 11:44:55;;;;;;;4.93;2.10;;;;;;;29.41;35.12;100832.72;5050591;28;20041;-72
2022/09/08 11:47:58;;;;;;;8.93;3.05;;;;;;;29.69;34.25;100813.19;5042896;28;20102;-71
2022/09/08 11:50:42;;;;;;;10.60;2.95;;;;;;;29.15;35.33;100831.50;5078371;28;20082;-72
2022/09/08 11:53:07;;;;;;;7.30;1.95;;;;;;;28.75;36.00;100835.84;5052243;28;20373;-71
2022/09/08 11:56:08;;;;;;;8.02;2.20;;;;;;;29.02;35.54;100829.06;5086158;28;20089;-72
2022/09/08 11:58:49;;;;;;;4.22;1.70;;;;;;;29.46;35.31;100821.53;4992673;28;20057;-73